Pagrindinis puslapis
METAR-TAF:

METAR-TAF

Oro uostai :

Lansarotė, Ispanija

platuma: 28-57N, ilguma: 013-36W, Aukštis: 14 m

Dabartinis oras

Ataskaita buvo paskelbta 38 minutes, ne 19:00 UTC
Vėjas 15 kt iš Šiaurės/Šiaurės Rytų
Temperatūra 19°C
Drėgmė 64%
Slėgis 1021 hPa
Matomumas 10 km arba daugiau
Mažai debesys ne aukštis 3000 ft
Išsisklaidę debesys ne aukštis 3500 ft

METAR: GCRR 291900Z 03015KT 9999 FEW030 SCT035 19/12 Q1021

Laikas: 19:38 (19:38 UTC)

Prognozė

Ataskaita buvo paskelbta 5 valandos ir 38 minutes, ne 14:00 UTC
Prognozė galioja nuo 29 metu 15 UTC su 01 metu 15 UTC
Vėjas 19 kt iš Šiaurės/Šiaurės Rytų
Matomumas 10 km arba daugiau
Mažai debesys ne aukštis 3000 ft
Tikimybė 30% :
Laikinai
nuo 29 metu 15 UTC su 29 metu 21 UTC
Vėjas 19 kt iš Šiaurės/Šiaurės Rytų su gūsio iki 29 kt
Tikimybė 30% :
Laikinai
nuo 01 metu 09 UTC su 01 metu 15 UTC
Vėjas 19 kt iš Šiaurės Rytų su gūsio iki 29 kt

TAF: GCRR 291400Z 2915/0115 02019KT 9999 FEW030 TX22/0114Z TN16/0106Z PROB30 TEMPO 2915/2921 02019G29KT PROB30 TEMPO 0109/0115 04019G29KT

Orai ataskaitas ir orų prognozės (METAR, TAF).

turimą stotys yra geltonos ir raudonos taškus žemėlapyje.

Perkelti pele per norėdami pamatyti stoties vardą.

Tada spustelėkite, norėdami matyti oro stebėjimo ir prognozės.

Norėdami pakeisti žemėlapį: spustelėkite ant žalios mygtukų su juodo kryžiaus žemyn,; žalią mygtuką su brūkšneliu, jei norite nutolinti; arba žalių rodyklių gretimoms žemėlapius.


METAR-TAF: